^^
Meteo Knjazevac Station Historical Data
Daily Summary for January 12, 2021 Units:  Metric    English   Both
Daily Weekly Monthly Yearly Custom
  High: Low: Average:
Temperature: 34.5 °C 14.7 °C 22.9 °C
Dew Point: 18.7 °C 12.1 °C 15.2 °C
Humidity: 86% 35% 66%
Wind Speed: 12.9km/h 0km/h 2.4km/h
Wind Gust: 22.5km/h - -
Wind- - WSW
Pressure: 1021.6 hPa 1018.8 hPa -
Precipitation: 0 mm    
Historical Graphs
 
 
Tabular Data for January 12, 2021
Time Temperature Dew Point Pressure Wind Wind Speed Wind Gust Humidity Rainfall Rate (Hourly) solar Conditions
00:00 20.3 °C 14.7 °C 1018.8 hPa WSW 1.6 km/h 6.4 km/h 70% 0 mm 0 W/m2
00:10 20.2 °C 14.6 °C 1018.8 hPa Calm   3.2 km/h 70% 0 mm 0 W/m2
00:20 20 °C 14.8 °C 1018.8 hPa West 1.6 km/h 3.2 km/h 72% 0 mm 0 W/m2
00:30 19.9 °C 14.7 °C 1019.2 hPa WSW 1.6 km/h 3.2 km/h 72% 0 mm 0 W/m2
00:40 19.7 °C 14.7 °C 1019.2 hPa Calm   1.6 km/h 73% 0 mm 0 W/m2
00:50 19.5 °C 14.6 °C 1019.2 hPa Calm   3.2 km/h 73% 0 mm 0 W/m2
01:00 19.1 °C 14.3 °C 1019.2 hPa NW 1.6 km/h 4.8 km/h 74% 0 mm 0 W/m2
01:10 18.9 °C 14.1 °C 1019.2 hPa Calm   3.2 km/h 74% 0 mm 0 W/m2
01:20 18.6 °C 14.1 °C 1019.2 hPa WSW 1.6 km/h 4.8 km/h 75% 0 mm 0 W/m2
01:30 18.4 °C 13.9 °C 1019.2 hPa Calm   3.2 km/h 75% 0 mm 0 W/m2
01:40 18.4 °C 14.3 °C 1019.2 hPa Calm   3.2 km/h 77% 0 mm 0 W/m2
01:50 18.1 °C 14 °C 1019.5 hPa NW 1.6 km/h 3.2 km/h 77% 0 mm 0 W/m2
02:00 17.9 °C 13.8 °C 1019.5 hPa Calm   3.2 km/h 77% 0 mm 0 W/m2
02:10 17.5 °C 13.4 °C 1019.5 hPa WNW 1.6 km/h 3.2 km/h 77% 0 mm 0 W/m2
02:20 17.4 °C 13.3 °C 1019.5 hPa West 3.2 km/h 6.4 km/h 77% 0 mm 0 W/m2
02:30 17.4 °C 13.1 °C 1019.5 hPa West 1.6 km/h 4.8 km/h 76% 0 mm 0 W/m2
02:40 17.2 °C 13.3 °C 1019.5 hPa Calm   3.2 km/h 78% 0 mm 0 W/m2
02:50 17.1 °C 13.2 °C 1019.5 hPa Calm   3.2 km/h 78% 0 mm 0 W/m2
03:00 16.9 °C 13.1 °C 1019.9 hPa Calm   1.6 km/h 78% 0 mm 0 W/m2
03:10 16.8 °C 13.1 °C 1019.5 hPa Calm   3.2 km/h 79% 0 mm 0 W/m2
03:20 16.7 °C 13.1 °C 1019.9 hPa Calm   1.6 km/h 79% 0 mm 0 W/m2
03:30 16.6 °C 12.9 °C 1019.9 hPa West 3.2 km/h 4.8 km/h 79% 0 mm 0 W/m2
03:40 16.5 °C 12.7 °C 1019.9 hPa WNW 1.6 km/h 6.4 km/h 78% 0 mm 0 W/m2
03:50 16.6 °C 12.7 °C 1019.9 hPa Calm   4.8 km/h 78% 0 mm 0 W/m2
04:00 16.4 °C 12.7 °C 1019.9 hPa Calm   3.2 km/h 79% 0 mm 0 W/m2
04:10 16.3 °C 12.8 °C 1019.9 hPa Calm   3.2 km/h 80% 0 mm 0 W/m2
04:20 16 °C 12.6 °C 1019.9 hPa Calm   3.2 km/h 80% 0 mm 0 W/m2
04:30 15.9 °C 12.7 °C 1019.9 hPa Calm   3.2 km/h 81% 0 mm 0 W/m2
04:40 15.8 °C 12.5 °C 1020.2 hPa Calm   3.2 km/h 81% 0 mm 0 W/m2
04:50 15.6 °C 12.3 °C 1020.2 hPa WNW 1.6 km/h 3.2 km/h 81% 0 mm 0 W/m2
05:00 15.4 °C 12.2 °C 1020.2 hPa WSW 1.6 km/h 3.2 km/h 81% 0 mm 0 W/m2
05:10 15.2 °C 12.3 °C 1020.2 hPa WNW 1.6 km/h 3.2 km/h 83% 0 mm 0 W/m2
05:20 15.2 °C 12.3 °C 1020.2 hPa Calm   3.2 km/h 83% 0 mm 0 W/m2
05:30 15.1 °C 12.2 °C 1020.5 hPa Calm   3.2 km/h 83% 0 mm 0 W/m2
05:40 14.9 °C 12.3 °C 1020.5 hPa NW 1.6 km/h 1.6 km/h 84% 0 mm 7 W/m2
05:50 14.8 °C 12.1 °C 1020.5 hPa NW 3.2 km/h 4.8 km/h 84% 0 mm 13 W/m2
06:00 14.8 °C 12.3 °C 1020.5 hPa West 1.6 km/h 3.2 km/h 85% 0 mm 22 W/m2
06:10 14.7 °C 12.2 °C 1020.9 hPa West 1.6 km/h 3.2 km/h 85% 0 mm 35 W/m2
06:20 14.7 °C 12.2 °C 1020.9 hPa Calm   4.8 km/h 85% 0 mm 43 W/m2
06:30 14.7 °C 12.2 °C 1020.9 hPa NW 1.6 km/h 3.2 km/h 85% 0 mm 53 W/m2
06:40 14.8 °C 12.3 °C 1020.9 hPa Calm   3.2 km/h 85% 0 mm 90 W/m2
06:50 14.9 °C 12.4 °C 1020.9 hPa Calm   1.6 km/h 85% 0 mm 124 W/m2
07:00 15.1 °C 12.8 °C 1020.9 hPa Calm   3.2 km/h 86% 0 mm 135 W/m2
07:10 15.4 °C 13.1 °C 1021.2 hPa Calm   3.2 km/h 86% 0 mm 113 W/m2
07:20 15.8 °C 13.4 °C 1021.2 hPa NW 1.6 km/h 4.8 km/h 86% 0 mm 187 W/m2
07:30 16.3 °C 13.8 °C 1021.2 hPa NW 1.6 km/h 3.2 km/h 85% 0 mm 251 W/m2
07:40 16.8 °C 14.1 °C 1021.2 hPa Calm   6.4 km/h 84% 0 mm 284 W/m2
07:50 17.4 °C 14.5 °C 1021.2 hPa Calm   3.2 km/h 83% 0 mm 324 W/m2
08:00 17.9 °C 14.4 °C 1021.6 hPa WNW 1.6 km/h 3.2 km/h 80% 0 mm 370 W/m2
08:10 18.4 °C 14.7 °C 1021.6 hPa WNW 1.6 km/h 4.8 km/h 79% 0 mm 417 W/m2
08:20 19.1 °C 15.1 °C 1021.6 hPa NW 1.6 km/h 4.8 km/h 78% 0 mm 445 W/m2
08:30 19.8 °C 15.7 °C 1021.6 hPa Calm   4.8 km/h 77% 0 mm 480 W/m2
08:40 20.7 °C 15.8 °C 1021.6 hPa SE 1.6 km/h 8 km/h 74% 0 mm 482 W/m2
08:50 21.3 °C 16.3 °C 1021.6 hPa SSE 1.6 km/h 6.4 km/h 73% 0 mm 540 W/m2
09:00 22.3 °C 16.8 °C 1021.6 hPa Calm   4.8 km/h 71% 0 mm 567 W/m2
09:10 23.8 °C 17.6 °C 1021.6 hPa Calm   6.4 km/h 68% 0 mm 602 W/m2
09:20 24.9 °C 17.9 °C 1021.6 hPa SW 1.6 km/h 4.8 km/h 65% 0 mm 629 W/m2
09:30 25.8 °C 18.3 °C 1021.2 hPa Calm   8 km/h 63% 0 mm 655 W/m2
09:40 26.4 °C 18.3 °C 1021.6 hPa WSW 1.6 km/h 4.8 km/h 61% 0 mm 680 W/m2
09:50 27.1 °C 18.7 °C 1021.2 hPa WNW 1.6 km/h 6.4 km/h 60% 0 mm 704 W/m2
10:00 27.9 °C 18.6 °C 1021.2 hPa SW 3.2 km/h 8 km/h 57% 0 mm 726 W/m2
10:10 28.4 °C 18.2 °C 1021.2 hPa SSW 3.2 km/h 8 km/h 54% 0 mm 748 W/m2
10:20 28.9 °C 18.3 °C 1021.2 hPa SSE 3.2 km/h 9.7 km/h 53% 0 mm 768 W/m2
10:30 29.5 °C 18.6 °C 1021.2 hPa SW 3.2 km/h 9.7 km/h 52% 0 mm 787 W/m2
10:40 29.9 °C 18.1 °C 1021.2 hPa SSW 1.6 km/h 8 km/h 49% 0 mm 805 W/m2
10:50 30.4 °C 17.8 °C 1020.9 hPa SSE 4.8 km/h 8 km/h 47% 0 mm 139 W/m2
11:00 30.7 °C 17.4 °C 1020.9 hPa South 1.6 km/h 9.7 km/h 45% 0 mm 691 W/m2
11:10 31.2 °C 17.8 °C 1020.9 hPa SW 3.2 km/h 9.7 km/h 45% 0 mm 246 W/m2
11:20 31.5 °C 17.4 °C 1020.9 hPa West 3.2 km/h 8 km/h 43% 0 mm 396 W/m2
11:30 31.8 °C 17.7 °C 1020.9 hPa SSW 4.8 km/h 11.3 km/h 43% 0 mm 873 W/m2
11:40 32.3 °C 18.1 °C 1020.9 hPa ESE 3.2 km/h 8 km/h 43% 0 mm 883 W/m2
11:50 32.6 °C 18 °C 1020.9 hPa ESE 4.8 km/h 8 km/h 42% 0 mm 890 W/m2
12:00 32.7 °C 17.3 °C 1020.5 hPa ESE 4.8 km/h 8 km/h 40% 0 mm 896 W/m2
12:10 33 °C 17.6 °C 1020.5 hPa South 4.8 km/h 11.3 km/h 40% 0 mm 901 W/m2
12:20 33.3 °C 17.4 °C 1020.5 hPa SW 4.8 km/h 11.3 km/h 39% 0 mm 904 W/m2
12:30 33.5 °C 18.1 °C 1020.5 hPa SW 8 km/h 12.9 km/h 40% 0 mm 905 W/m2
12:40 33.7 °C 18.6 °C 1020.5 hPa North 3.2 km/h 12.9 km/h 41% 0 mm 905 W/m2
12:50 34.2 °C 18.3 °C 1020.2 hPa SSE 3.2 km/h 9.7 km/h 39% 0 mm 903 W/m2
13:00 33.6 °C 18.1 °C 1020.2 hPa WSW 4.8 km/h 11.3 km/h 40% 0 mm 201 W/m2
13:10 32.8 °C 17.9 °C 1020.2 hPa West 1.6 km/h 14.5 km/h 41% 0 mm 895 W/m2
13:20 33.6 °C 17.7 °C 1020.2 hPa NW 4.8 km/h 12.9 km/h 39% 0 mm 577 W/m2
13:30 33.7 °C 17.8 °C 1020.2 hPa SW 8 km/h 12.9 km/h 39% 0 mm 443 W/m2
13:40 33.4 °C 17.2 °C 1020.2 hPa WSW 9.7 km/h 16.1 km/h 38% 0 mm 871 W/m2
13:50 33.9 °C 17.6 °C 1020.2 hPa WSW 8 km/h 19.3 km/h 38% 0 mm 860 W/m2
14:00 34 °C 17.7 °C 1020.2 hPa West 12.9 km/h 22.5 km/h 38% 0 mm 847 W/m2
14:10 34.2 °C 17.8 °C 1020.2 hPa WNW 8 km/h 19.3 km/h 38% 0 mm 833 W/m2
14:20 34.4 °C 16.8 °C 1020.2 hPa NNW 11.3 km/h 19.3 km/h 35% 0 mm 818 W/m2
14:30 34.5 °C 17.3 °C 1019.9 hPa WNW 8 km/h 14.5 km/h 36% 0 mm 801 W/m2
14:40 34.5 °C 16.8 °C 1019.9 hPa NNW 4.8 km/h 22.5 km/h 35% 0 mm 783 W/m2
14:50 34.4 °C 16.7 °C 1019.9 hPa WSW 11.3 km/h 22.5 km/h 35% 0 mm 764 W/m2
15:00 34.4 °C 16.8 °C 1019.9 hPa West 11.3 km/h 22.5 km/h 35% 0 mm 743 W/m2
Knjazevac, Serbia
Compliments of Weather Underground - 2 mb